Time;durP1;ratioP1;P1;durP2;ratioP2;P2;SDS_P1;SDS_P2;PMS_P1;PMS_P2;Temp;Humidity;BMP_temperature;BMP_pressure;BME280_temperature;BME280_humidity;BME280_pressure;Samples;Min_cycle;Max_cycle;Signal;HPM_P1;HPM_P2
2024/04/09 00:00:12;;;;;;;;;;;;;;;;;;1141497;26;20302;-76
2024/04/09 00:00:43;;;;;;;;;;;;;;;;;;1141685;26;20340;-76
2024/04/09 00:01:13;;;;;;;;;;;;;;;;;;1141795;26;20418;-76
2024/04/09 00:01:43;;;;;;;;;;;;;;;;;;1141370;26;19935;-75
2024/04/09 00:02:14;;;;;;;;;;;;;;;;;;1142185;26;20290;-76
2024/04/09 00:02:44;;;;;;;;;;;;;;;;;;1141799;26;20392;-75
2024/04/09 00:03:16;;;;;;;;;;;;;;;;;;1134315;26;19934;-76
2024/04/09 00:03:46;;;;;;;;;;;;;;;;;;1146146;25;19936;-76
2024/04/09 00:04:16;;;;;;;;;;;;;;;;;;1146075;25;19927;-76
2024/04/09 00:04:47;;;;;;;;;;;;;;;;;;1153802;25;19937;-76
2024/04/09 00:05:19;;;;;;;;;;;;;;;;;;1153515;25;20286;-76
2024/04/09 00:05:54;;;;;;;;;;;;;;;;;;1146467;25;19927;-75
2024/04/09 00:06:25;;;;;;;;;;;;;;;;;;1149786;25;19935;-76
2024/04/09 00:06:55;;;;;;;;;;;;;;;;;;1150016;25;19939;-76
2024/04/09 00:07:25;;;;;;;;;;;;;;;;;;1141624;26;19959;-76
2024/04/09 00:07:56;;;;;;;;;;;;;;;;;;1141351;26;19978;-76
2024/04/09 00:08:28;;;;;;;;;;;;;;;;;;1141752;26;19927;-76
2024/04/09 00:08:59;;;;;;;;;;;;;;;;;;1139689;26;19935;-76
2024/04/09 00:09:29;;;;;;;;;;;;;;;;;;1141006;26;19975;-76
2024/04/09 00:10:06;;;;;;;;;;;;;;;;;;1134286;26;19965;-76
2024/04/09 00:10:36;;;;;;;;;;;;;;;;;;1135667;26;19956;-76
2024/04/09 00:11:07;;;;;;;;;;;;;;;;;;1143258;25;19927;-76
2024/04/09 00:11:37;;;;;;;;;;;;;;;;;;1141405;26;20018;-76
2024/04/09 00:12:07;;;;;;;;;;;;;;;;;;1144578;25;19963;-76
2024/04/09 00:12:37;;;;;;;;;;;;;;;;;;1144042;25;19959;-76
2024/04/09 00:13:09;;;;;;;;;;;;;;;;;;1144100;25;19927;-76
2024/04/09 00:13:41;;;;;;;;;;;;;;;;;;1145582;25;19980;-76
2024/04/09 00:14:12;;;;;;;;;;;;;;;;;;1141875;26;19927;-78
2024/04/09 00:14:47;;;;;;;;;;;;;;;;;;1141600;26;19928;-78
2024/04/09 00:15:18;;;;;;;;;;;;;;;;;;1136280;26;19938;-78
2024/04/09 00:15:49;;;;;;;;;;;;;;;;;;1142114;26;20398;-76
2024/04/09 00:16:22;;;;;;;;;;;;;;;;;;1141587;26;19927;-76
2024/04/09 00:16:55;;;;;;;;;;;;;;;;;;1141516;26;19942;-76
2024/04/09 00:17:34;;;;;;;;;;;;;;;;;;1134020;26;19952;-78
2024/04/09 00:18:14;;;;;;;;;;;;;;;;;;1134095;26;19956;-76
2024/04/09 00:18:44;;;;;;;;;;;;;;;;;;1131951;26;19964;-76
2024/04/09 00:19:17;;;;;;;;;;;;;;;;;;1138461;26;20399;-75
2024/04/09 00:19:47;;;;;;;;;;;;;;;;;;1144969;25;20355;-76
2024/04/09 00:20:18;;;;;;;;;;;;;;;;;;1141858;25;19935;-76
2024/04/09 00:20:53;;;;;;;;;;;;;;;;;;1135073;26;19927;-76
2024/04/09 00:21:23;;;;;;;;;;;;;;;;;;1138349;26;19959;-76
2024/04/09 00:21:54;;;;;;;;;;;;;;;;;;1139792;26;19934;-76
2024/04/09 00:22:27;;;;;;;;;;;;;;;;;;1141862;26;19968;-76
2024/04/09 00:22:59;;;;;;;;;;;;;;;;;;1134998;26;20025;-76
2024/04/09 00:23:29;;;;;;;;;;;;;;;;;;1141622;26;19939;-76
2024/04/09 00:24:00;;;;;;;;;;;;;;;;;;1140763;26;19975;-76
2024/04/09 00:24:32;;;;;;;;;;;;;;;;;;1141515;26;19942;-76
2024/04/09 00:25:02;;;;;;;;;;;;;;;;;;1141722;26;19996;-76
2024/04/09 00:25:32;;;;;;;;;;;;;;;;;;1142245;25;19939;-76
2024/04/09 00:26:02;;;;;;;;;;;;;;;;;;1149889;25;20441;-76
2024/04/09 00:26:33;;;;;;;;;;;;;;;;;;1141404;26;20230;-75
2024/04/09 00:27:04;;;;;;;;;;;;;;;;;;1141692;26;19938;-76
2024/04/09 00:27:34;;;;;;;;;;;;;;;;;;1138203;26;20042;-76
2024/04/09 00:28:04;;;;;;;;;;;;;;;;;;1132526;26;19935;-76
2024/04/09 00:28:34;;;;;;;;;;;;;;;;;;1138371;26;19935;-76
2024/04/09 00:29:05;;;;;;;;;;;;;;;;;;1136094;26;19932;-76
2024/04/09 00:29:35;;;;;;;;;;;;;;;;;;1131876;26;19932;-76
2024/04/09 00:30:06;;;;;;;;;;;;;;;;;;1141792;26;19936;-76
2024/04/09 00:30:36;;;;;;;;;;;;;;;;;;1141507;26;19927;-76
2024/04/09 00:31:06;;;;;;;;;;;;;;;;;;1135984;26;20005;-76
2024/04/09 00:31:36;;;;;;;;;;;;;;;;;;1137862;26;19932;-76
2024/04/09 00:32:06;;;;;;;;;;;;;;;;;;1132709;26;19960;-75
2024/04/09 00:32:37;;;;;;;;;;;;;;;;;;1134083;26;20272;-76
2024/04/09 00:33:07;;;;;;;;;;;;;;;;;;1133767;26;19928;-76
2024/04/09 00:33:38;;;;;;;;;;;;;;;;;;1133891;26;19997;-76
2024/04/09 00:34:10;;;;;;;;;;;;;;;;;;1142124;25;19970;-76
2024/04/09 00:34:42;;;;;;;;;;;;;;;;;;1144232;25;19939;-76
2024/04/09 00:35:14;;;;;;;;;;;;;;;;;;1145829;25;19927;-76
2024/04/09 00:35:44;;;;;;;;;;;;;;;;;;1143681;25;20340;-76
2024/04/09 00:36:14;;;;;;;;;;;;;;;;;;1141274;26;19931;-76
2024/04/09 00:36:45;;;;;;;;;;;;;;;;;;1145032;25;19927;-76
2024/04/09 00:37:15;;;;;;;;;;;;;;;;;;1137008;26;19928;-75
2024/04/09 00:37:45;;;;;;;;;;;;;;;;;;1143771;25;19931;-75
2024/04/09 00:38:19;;;;;;;;;;;;;;;;;;1141309;26;19939;-76
2024/04/09 00:38:49;;;;;;;;;;;;;;;;;;1132108;26;19928;-76
2024/04/09 00:39:24;;;;;;;;;;;;;;;;;;1134226;26;19935;-76
2024/04/09 00:39:55;;;;;;;;;;;;;;;;;;1142381;25;20411;-76
2024/04/09 00:40:26;;;;;;;;;;;;;;;;;;1149060;25;19927;-76
2024/04/09 00:40:57;;;;;;;;;;;;;;;;;;1154215;25;19932;-76
2024/04/09 00:41:28;;;;;;;;;;;;;;;;;;1147665;25;19927;-76
2024/04/09 00:41:58;;;;;;;;;;;;;;;;;;1142466;26;20394;-76
2024/04/09 00:42:28;;;;;;;;;;;;;;;;;;1142448;26;19931;-76
2024/04/09 00:42:58;;;;;;;;;;;;;;;;;;1142235;26;19942;-76
2024/04/09 00:43:29;;;;;;;;;;;;;;;;;;1142264;26;19931;-76
2024/04/09 00:44:00;;;;;;;;;;;;;;;;;;1134823;26;19935;-76
2024/04/09 00:44:31;;;;;;;;;;;;;;;;;;1138181;26;19928;-76
2024/04/09 00:45:01;;;;;;;;;;;;;;;;;;1137990;26;19936;-76
2024/04/09 00:45:32;;;;;;;;;;;;;;;;;;1140187;26;19956;-76
2024/04/09 00:46:04;;;;;;;;;;;;;;;;;;1131549;26;19944;-76
2024/04/09 00:46:35;;;;;;;;;;;;;;;;;;1134332;26;19983;-75
2024/04/09 00:47:06;;;;;;;;;;;;;;;;;;1142358;26;20402;-75
2024/04/09 00:47:36;;;;;;;;;;;;;;;;;;1141125;25;19934;-76
2024/04/09 00:48:06;;;;;;;;;;;;;;;;;;1142283;25;19927;-76
2024/04/09 00:48:37;;;;;;;;;;;;;;;;;;1142277;26;19931;-76
2024/04/09 00:49:08;;;;;;;;;;;;;;;;;;1142243;26;19927;-76
2024/04/09 00:49:38;;;;;;;;;;;;;;;;;;1142318;26;19931;-76
2024/04/09 00:50:11;;;;;;;;;;;;;;;;;;1142650;25;19927;-77
2024/04/09 00:50:41;;;;;;;;;;;;;;;;;;1141021;26;20504;-76
2024/04/09 00:51:12;;;;;;;;;;;;;;;;;;1136465;26;19995;-76
2024/04/09 00:51:44;;;;;;;;;;;;;;;;;;1144613;25;19951;-75
2024/04/09 00:52:15;;;;;;;;;;;;;;;;;;1144864;25;19927;-75
2024/04/09 00:52:45;;;;;;;;;;;;;;;;;;1137381;26;19938;-78
2024/04/09 00:53:16;;;;;;;;;;;;;;;;;;1140566;26;19960;-76
2024/04/09 00:53:47;;;;;;;;;;;;;;;;;;1138024;26;19940;-76
2024/04/09 00:54:18;;;;;;;;;;;;;;;;;;1142764;25;19927;-76
2024/04/09 00:54:48;;;;;;;;;;;;;;;;;;1145260;25;19933;-76
2024/04/09 00:55:24;;;;;;;;;;;;;;;;;;1141891;26;19927;-76
2024/04/09 00:55:55;;;;;;;;;;;;;;;;;;1142519;26;19934;-76
2024/04/09 00:56:26;;;;;;;;;;;;;;;;;;1144352;25;19934;-78
2024/04/09 00:56:56;;;;;;;;;;;;;;;;;;1141945;25;19935;-76
2024/04/09 00:57:27;;;;;;;;;;;;;;;;;;1140779;26;19927;-76
2024/04/09 00:57:57;;;;;;;;;;;;;;;;;;1140989;26;19935;-76
2024/04/09 00:58:28;;;;;;;;;;;;;;;;;;1138316;26;19927;-76
2024/04/09 00:58:58;;;;;;;;;;;;;;;;;;1131284;26;19935;-77
2024/04/09 00:59:29;;;;;;;;;;;;;;;;;;1127984;26;19961;-77
2024/04/09 00:59:59;;;;;;;;;;;;;;;;;;1134843;26;19952;-76
2024/04/09 01:00:29;;;;;;;;;;;;;;;;;;1134527;26;20280;-76
2024/04/09 01:00:59;;;;;;;;;;;;;;;;;;1142234;26;19956;-76
2024/04/09 01:01:30;;;;;;;;;;;;;;;;;;1142611;26;19980;-76
2024/04/09 01:02:00;;;;;;;;;;;;;;;;;;1135084;26;19992;-77
2024/04/09 01:02:31;;;;;;;;;;;;;;;;;;1140098;26;19943;-76
2024/04/09 01:03:01;;;;;;;;;;;;;;;;;;1136834;26;19935;-76
2024/04/09 01:03:31;;;;;;;;;;;;;;;;;;1131717;26;19956;-77
2024/04/09 01:04:01;;;;;;;;;;;;;;;;;;1140340;26;19998;-76
2024/04/09 01:04:32;;;;;;;;;;;;;;;;;;1130456;26;19960;-76
2024/04/09 01:05:02;;;;;;;;;;;;;;;;;;1142556;26;19995;-77
2024/04/09 01:05:32;;;;;;;;;;;;;;;;;;1140315;26;19936;-76
2024/04/09 01:06:02;;;;;;;;;;;;;;;;;;1138388;26;19936;-76
2024/04/09 01:06:33;;;;;;;;;;;;;;;;;;1133766;26;20323;-76
2024/04/09 01:07:04;;;;;;;;;;;;;;;;;;1141260;26;19935;-76
2024/04/09 01:07:34;;;;;;;;;;;;;;;;;;1138096;26;20384;-76
2024/04/09 01:08:04;;;;;;;;;;;;;;;;;;1137849;26;19928;-76
2024/04/09 01:08:34;;;;;;;;;;;;;;;;;;1152274;25;19927;-76
2024/04/09 01:09:05;;;;;;;;;;;;;;;;;;1146573;25;19942;-77
2024/04/09 01:09:35;;;;;;;;;;;;;;;;;;1143464;25;19927;-76
2024/04/09 01:10:05;;;;;;;;;;;;;;;;;;1146153;25;20496;-76
2024/04/09 01:10:35;;;;;;;;;;;;;;;;;;1141669;26;19936;-76
2024/04/09 01:11:07;;;;;;;;;;;;;;;;;;1135008;26;19960;-76
2024/04/09 01:11:37;;;;;;;;;;;;;;;;;;1132252;26;19928;-76
2024/04/09 01:12:07;;;;;;;;;;;;;;;;;;1134664;26;19960;-76
2024/04/09 01:12:38;;;;;;;;;;;;;;;;;;1127390;26;19929;-76
2024/04/09 01:13:08;;;;;;;;;;;;;;;;;;1134709;26;19967;-76
2024/04/09 01:13:38;;;;;;;;;;;;;;;;;;1134681;26;19938;-76
2024/04/09 01:14:08;;;;;;;;;;;;;;;;;;1135111;26;20299;-80
2024/04/09 01:14:39;;;;;;;;;;;;;;;;;;1142377;26;20310;-78
2024/04/09 01:15:11;;;;;;;;;;;;;;;;;;1142195;26;20297;-77
2024/04/09 01:15:42;;;;;;;;;;;;;;;;;;1149920;25;19927;-77
2024/04/09 01:16:12;;;;;;;;;;;;;;;;;;1150603;25;19927;-79
2024/04/09 01:16:42;;;;;;;;;;;;;;;;;;1150269;25;20274;-78
2024/04/09 01:17:13;;;;;;;;;;;;;;;;;;1142236;26;20287;-77
2024/04/09 01:17:43;;;;;;;;;;;;;;;;;;1142115;26;19927;-77
2024/04/09 01:18:13;;;;;;;;;;;;;;;;;;1142336;26;20125;-78
2024/04/09 01:18:43;;;;;;;;;;;;;;;;;;1142127;26;20295;-77
2024/04/09 01:19:14;;;;;;;;;;;;;;;;;;1142921;26;19981;-77
2024/04/09 01:19:44;;;;;;;;;;;;;;;;;;1148078;25;20336;-77
2024/04/09 01:20:16;;;;;;;;;;;;;;;;;;1140601;25;20321;-77
2024/04/09 01:20:46;;;;;;;;;;;;;;;;;;1141810;25;19938;-77
2024/04/09 01:21:17;;;;;;;;;;;;;;;;;;1140730;25;19927;-77
2024/04/09 01:21:47;;;;;;;;;;;;;;;;;;1140938;25;19946;-78
2024/04/09 01:22:17;;;;;;;;;;;;;;;;;;1147570;25;19935;-76
2024/04/09 01:22:47;;;;;;;;;;;;;;;;;;1138683;26;19939;-77
2024/04/09 01:23:18;;;;;;;;;;;;;;;;;;1142350;26;19995;-77
2024/04/09 01:23:48;;;;;;;;;;;;;;;;;;1137682;25;20407;-77
2024/04/09 01:24:18;;;;;;;;;;;;;;;;;;1137851;26;20019;-78
2024/04/09 01:24:48;;;;;;;;;;;;;;;;;;1145473;25;20278;-77
2024/04/09 01:25:20;;;;;;;;;;;;;;;;;;1145042;25;19930;-77
2024/04/09 01:25:50;;;;;;;;;;;;;;;;;;1144613;25;19934;-77
2024/04/09 01:26:22;;;;;;;;;;;;;;;;;;1150195;25;19934;-78
2024/04/09 01:26:53;;;;;;;;;;;;;;;;;;1140477;25;20310;-79
2024/04/09 01:27:25;;;;;;;;;;;;;;;;;;1132282;26;19927;-79
2024/04/09 01:27:55;;;;;;;;;;;;;;;;;;1131160;26;19928;-78
2024/04/09 01:28:25;;;;;;;;;;;;;;;;;;1125794;26;20276;-78
2024/04/09 01:28:56;;;;;;;;;;;;;;;;;;1133613;26;19939;-78
2024/04/09 01:29:26;;;;;;;;;;;;;;;;;;1147584;25;19930;-78
2024/04/09 01:29:57;;;;;;;;;;;;;;;;;;1138765;25;20367;-77
2024/04/09 01:30:27;;;;;;;;;;;;;;;;;;1147460;25;20481;-77
2024/04/09 01:30:57;;;;;;;;;;;;;;;;;;1152841;25;20411;-77
2024/04/09 01:31:29;;;;;;;;;;;;;;;;;;1143940;25;20050;-77
2024/04/09 01:32:00;;;;;;;;;;;;;;;;;;1151820;25;20420;-78
2024/04/09 01:32:31;;;;;;;;;;;;;;;;;;1141709;25;19935;-78
2024/04/09 01:33:01;;;;;;;;;;;;;;;;;;1137713;26;19965;-77
2024/04/09 01:33:32;;;;;;;;;;;;;;;;;;1134725;26;20431;-77
2024/04/09 01:34:04;;;;;;;;;;;;;;;;;;1129892;26;19940;-79
2024/04/09 01:34:37;;;;;;;;;;;;;;;;;;1141633;26;19959;-78
2024/04/09 01:35:08;;;;;;;;;;;;;;;;;;1131460;26;19928;-77
2024/04/09 01:35:39;;;;;;;;;;;;;;;;;;1130567;26;19940;-77
2024/04/09 01:36:10;;;;;;;;;;;;;;;;;;1136742;26;20473;-76
2024/04/09 01:36:40;;;;;;;;;;;;;;;;;;1132859;26;20275;-77
2024/04/09 01:37:12;;;;;;;;;;;;;;;;;;1140911;25;19955;-77
2024/04/09 01:37:42;;;;;;;;;;;;;;;;;;1134331;26;20440;-77
2024/04/09 01:38:12;;;;;;;;;;;;;;;;;;1126477;26;19933;-77
2024/04/09 01:38:43;;;;;;;;;;;;;;;;;;1133646;26;19928;-77
2024/04/09 01:39:14;;;;;;;;;;;;;;;;;;1134107;26;19943;-77
2024/04/09 01:39:48;;;;;;;;;;;;;;;;;;1134957;26;19944;-77
2024/04/09 01:40:18;;;;;;;;;;;;;;;;;;1142257;26;19927;-77
2024/04/09 01:40:49;;;;;;;;;;;;;;;;;;1140231;26;20377;-77
2024/04/09 01:41:20;;;;;;;;;;;;;;;;;;1134517;26;19939;-77
2024/04/09 01:41:50;;;;;;;;;;;;;;;;;;1124340;26;19965;-76
2024/04/09 01:42:20;;;;;;;;;;;;;;;;;;1136921;26;20410;-77
2024/04/09 01:42:50;;;;;;;;;;;;;;;;;;1140870;26;20410;-77
2024/04/09 01:43:20;;;;;;;;;;;;;;;;;;1142611;25;19928;-78
2024/04/09 01:43:52;;;;;;;;;;;;;;;;;;1146908;25;20061;-78
2024/04/09 01:44:23;;;;;;;;;;;;;;;;;;1132671;26;19971;-79
2024/04/09 01:44:53;;;;;;;;;;;;;;;;;;1139885;25;20340;-77
2024/04/09 01:45:23;;;;;;;;;;;;;;;;;;1140797;26;20400;-77
2024/04/09 01:45:53;;;;;;;;;;;;;;;;;;1141514;26;20445;-77
2024/04/09 01:46:23;;;;;;;;;;;;;;;;;;1141302;26;19931;-77
2024/04/09 01:46:54;;;;;;;;;;;;;;;;;;1141006;26;20020;-77
2024/04/09 01:47:25;;;;;;;;;;;;;;;;;;1134271;26;19928;-78
2024/04/09 01:47:55;;;;;;;;;;;;;;;;;;1140858;25;19952;-78
2024/04/09 01:48:25;;;;;;;;;;;;;;;;;;1133961;26;20000;-77
2024/04/09 01:48:56;;;;;;;;;;;;;;;;;;1130692;26;19942;-78
2024/04/09 01:49:26;;;;;;;;;;;;;;;;;;1139184;26;19928;-77
2024/04/09 01:49:57;;;;;;;;;;;;;;;;;;1138204;26;19980;-78
2024/04/09 01:50:27;;;;;;;;;;;;;;;;;;1145404;25;19927;-78
2024/04/09 01:50:58;;;;;;;;;;;;;;;;;;1143974;25;20276;-78
2024/04/09 01:51:28;;;;;;;;;;;;;;;;;;1139585;25;19942;-76
2024/04/09 01:51:59;;;;;;;;;;;;;;;;;;1131149;26;19928;-76
2024/04/09 01:52:29;;;;;;;;;;;;;;;;;;1115863;26;19929;-76
2024/04/09 01:52:59;;;;;;;;;;;;;;;;;;1126363;26;20431;-76
2024/04/09 01:53:29;;;;;;;;;;;;;;;;;;1126377;26;19928;-77
2024/04/09 01:53:59;;;;;;;;;;;;;;;;;;1132255;26;19928;-76
2024/04/09 01:54:30;;;;;;;;;;;;;;;;;;1134128;26;19943;-76
2024/04/09 01:55:00;;;;;;;;;;;;;;;;;;1141336;25;19931;-76
2024/04/09 01:55:31;;;;;;;;;;;;;;;;;;1149144;25;19930;-76
2024/04/09 01:56:01;;;;;;;;;;;;;;;;;;1146581;25;19927;-76
2024/04/09 01:56:31;;;;;;;;;;;;;;;;;;1140940;26;19942;-78
2024/04/09 01:57:01;;;;;;;;;;;;;;;;;;1141790;26;19932;-79
2024/04/09 01:57:32;;;;;;;;;;;;;;;;;;1142156;26;20009;-78
2024/04/09 01:58:04;;;;;;;;;;;;;;;;;;1142039;26;20014;-77
2024/04/09 01:58:35;;;;;;;;;;;;;;;;;;1140051;26;19935;-77
2024/04/09 01:59:05;;;;;;;;;;;;;;;;;;1133708;26;19943;-77
2024/04/09 01:59:36;;;;;;;;;;;;;;;;;;1128163;26;19935;-77
2024/04/09 02:00:11;;;;;;;;;;;;;;;;;;1128785;26;19937;-77
2024/04/09 02:00:41;;;;;;;;;;;;;;;;;;1133392;26;20379;-77
2024/04/09 02:01:11;;;;;;;;;;;;;;;;;;1144558;25;19960;-77
2024/04/09 02:01:42;;;;;;;;;;;;;;;;;;1143669;26;20435;-77
2024/04/09 02:02:13;;;;;;;;;;;;;;;;;;1143472;26;19935;-79
2024/04/09 02:02:43;;;;;;;;;;;;;;;;;;1142464;26;19935;-78
2024/04/09 02:03:14;;;;;;;;;;;;;;;;;;1143007;26;20426;-77
2024/04/09 02:03:49;;;;;;;;;;;;;;;;;;1143409;26;19939;-78
2024/04/09 02:04:19;;;;;;;;;;;;;;;;;;1134825;26;20004;-77
2024/04/09 02:04:50;;;;;;;;;;;;;;;;;;1139466;26;19928;-77
2024/04/09 02:05:20;;;;;;;;;;;;;;;;;;1141250;25;19934;-77
2024/04/09 02:05:51;;;;;;;;;;;;;;;;;;1151500;25;19931;-79
2024/04/09 02:06:22;;;;;;;;;;;;;;;;;;1151800;25;19930;-79
2024/04/09 02:06:52;;;;;;;;;;;;;;;;;;1143279;26;19927;-79
2024/04/09 02:07:23;;;;;;;;;;;;;;;;;;1142916;26;20427;-79
2024/04/09 02:07:53;;;;;;;;;;;;;;;;;;1142339;26;19939;-79
2024/04/09 02:08:23;;;;;;;;;;;;;;;;;;1139596;26;19946;-78
2024/04/09 02:08:53;;;;;;;;;;;;;;;;;;1142343;26;19995;-79
2024/04/09 02:09:25;;;;;;;;;;;;;;;;;;1134506;26;19967;-78
2024/04/09 02:09:55;;;;;;;;;;;;;;;;;;1134180;26;19936;-78
2024/04/09 02:10:27;;;;;;;;;;;;;;;;;;1143445;26;19927;-78
2024/04/09 02:10:58;;;;;;;;;;;;;;;;;;1144208;26;20038;-79
2024/04/09 02:11:28;;;;;;;;;;;;;;;;;;1141239;26;20054;-78
2024/04/09 02:11:58;;;;;;;;;;;;;;;;;;1142072;25;19931;-78
2024/04/09 02:12:29;;;;;;;;;;;;;;;;;;1145047;25;19928;-79
2024/04/09 02:12:59;;;;;;;;;;;;;;;;;;1141931;26;19936;-79
2024/04/09 02:13:29;;;;;;;;;;;;;;;;;;1136450;26;19939;-79
2024/04/09 02:14:00;;;;;;;;;;;;;;;;;;1134714;26;20050;-78
2024/04/09 02:14:30;;;;;;;;;;;;;;;;;;1135504;26;20110;-78
2024/04/09 02:15:01;;;;;;;;;;;;;;;;;;1138869;25;20007;-78
2024/04/09 02:15:31;;;;;;;;;;;;;;;;;;1139834;26;19928;-78
2024/04/09 02:16:01;;;;;;;;;;;;;;;;;;1138638;25;19942;-78
2024/04/09 02:16:31;;;;;;;;;;;;;;;;;;1140441;25;20284;-78
2024/04/09 02:17:02;;;;;;;;;;;;;;;;;;1140374;25;19935;-78
2024/04/09 02:17:32;;;;;;;;;;;;;;;;;;1144117;25;19935;-78
2024/04/09 02:18:02;;;;;;;;;;;;;;;;;;1147331;25;19931;-78
2024/04/09 02:18:32;;;;;;;;;;;;;;;;;;1146646;25;19942;-78
2024/04/09 02:19:03;;;;;;;;;;;;;;;;;;1140286;26;20043;-78
2024/04/09 02:19:33;;;;;;;;;;;;;;;;;;1140382;25;19943;-78
2024/04/09 02:20:04;;;;;;;;;;;;;;;;;;1131740;26;19961;-77
2024/04/09 02:20:34;;;;;;;;;;;;;;;;;;1133302;26;19928;-78
2024/04/09 02:21:07;;;;;;;;;;;;;;;;;;1132781;26;19935;-78
2024/04/09 02:21:37;;;;;;;;;;;;;;;;;;1128158;26;20035;-79
2024/04/09 02:22:08;;;;;;;;;;;;;;;;;;1128916;26;20069;-79
2024/04/09 02:22:38;;;;;;;;;;;;;;;;;;1120029;26;20424;-79
2024/04/09 02:23:08;;;;;;;;;;;;;;;;;;1128075;26;20307;-79
2024/04/09 02:23:41;;;;;;;;;;;;;;;;;;1136462;26;20293;-80
2024/04/09 02:24:11;;;;;;;;;;;;;;;;;;1136409;26;19947;-80
2024/04/09 02:24:42;;;;;;;;;;;;;;;;;;1134410;26;19939;-79
2024/04/09 02:25:12;;;;;;;;;;;;;;;;;;1130379;26;20408;-78
2024/04/09 02:25:42;;;;;;;;;;;;;;;;;;1130883;26;20340;-78
2024/04/09 02:26:12;;;;;;;;;;;;;;;;;;1133575;26;19947;-78
2024/04/09 02:26:43;;;;;;;;;;;;;;;;;;1132967;26;21596;-79
2024/04/09 02:27:13;;;;;;;;;;;;;;;;;;1140012;26;19942;-79
2024/04/09 02:27:44;;;;;;;;;;;;;;;;;;1132625;26;20461;-79
2024/04/09 02:28:14;;;;;;;;;;;;;;;;;;1128643;26;19940;-78
2024/04/09 02:28:44;;;;;;;;;;;;;;;;;;1137513;26;19928;-78
2024/04/09 02:29:14;;;;;;;;;;;;;;;;;;1132360;26;19920;-79
2024/04/09 02:29:45;;;;;;;;;;;;;;;;;;1137025;26;19928;-78
2024/04/09 02:30:15;;;;;;;;;;;;;;;;;;1141304;26;19956;-78
2024/04/09 02:30:45;;;;;;;;;;;;;;;;;;1143465;26;19972;-78
2024/04/09 02:31:16;;;;;;;;;;;;;;;;;;1138943;26;19920;-78
2024/04/09 02:31:46;;;;;;;;;;;;;;;;;;1130182;26;20469;-78
2024/04/09 02:32:16;;;;;;;;;;;;;;;;;;1135136;26;20334;-77
2024/04/09 02:32:47;;;;;;;;;;;;;;;;;;1137509;26;20050;-79
2024/04/09 02:33:17;;;;;;;;;;;;;;;;;;1134176;26;20090;-79
2024/04/09 02:33:48;;;;;;;;;;;;;;;;;;1140787;26;19935;-78
2024/04/09 02:34:23;;;;;;;;;;;;;;;;;;1142489;25;19927;-78
2024/04/09 02:34:53;;;;;;;;;;;;;;;;;;1142170;25;19936;-77
2024/04/09 02:35:24;;;;;;;;;;;;;;;;;;1138987;26;19947;-77
2024/04/09 02:35:54;;;;;;;;;;;;;;;;;;1143518;25;20053;-79
2024/04/09 02:36:24;;;;;;;;;;;;;;;;;;1141249;25;20347;-79
2024/04/09 02:36:55;;;;;;;;;;;;;;;;;;1141747;25;19931;-78
2024/04/09 02:37:25;;;;;;;;;;;;;;;;;;1142158;25;19928;-80
2024/04/09 02:37:56;;;;;;;;;;;;;;;;;;1140942;25;19932;-78
2024/04/09 02:38:26;;;;;;;;;;;;;;;;;;1141643;26;19931;-79
2024/04/09 02:38:57;;;;;;;;;;;;;;;;;;1132210;21;19941;-76
2024/04/09 02:39:28;;;;;;;;;;;;;;;;;;1116839;26;19932;-77
2024/04/09 02:40:04;;;;;;;;;;;;;;;;;;1116309;26;20057;-78
2024/04/09 02:40:34;;;;;;;;;;;;;;;;;;1118331;26;20029;-79
2024/04/09 02:41:05;;;;;;;;;;;;;;;;;;1121121;26;20015;-79
2024/04/09 02:41:39;;;;;;;;;;;;;;;;;;1120432;26;19929;-78
2024/04/09 02:42:13;;;;;;;;;;;;;;;;;;1119768;26;20403;-77
2024/04/09 02:42:43;;;;;;;;;;;;;;;;;;1118954;26;19935;-79
2024/04/09 02:43:14;;;;;;;;;;;;;;;;;;1123974;26;20034;-78
2024/04/09 02:43:45;;;;;;;;;;;;;;;;;;1126510;26;19936;-79
2024/04/09 02:44:16;;;;;;;;;;;;;;;;;;1125435;26;19949;-80
2024/04/09 02:44:46;;;;;;;;;;;;;;;;;;1125686;26;20199;-79
2024/04/09 02:45:18;;;;;;;;;;;;;;;;;;1112664;26;19936;-78
2024/04/09 02:45:51;;;;;;;;;;;;;;;;;;1112455;26;20284;-79
2024/04/09 02:46:22;;;;;;;;;;;;;;;;;;1109258;26;19937;-77
2024/04/09 02:46:53;;;;;;;;;;;;;;;;;;1112641;26;19938;-80
2024/04/09 02:47:23;;;;;;;;;;;;;;;;;;1119406;26;20388;-78
2024/04/09 02:47:53;;;;;;;;;;;;;;;;;;1117482;26;20051;-78
2024/04/09 02:48:24;;;;;;;;;;;;;;;;;;1125737;26;20709;-78
2024/04/09 02:48:55;;;;;;;;;;;;;;;;;;1126083;26;19928;-79
2024/04/09 02:49:25;;;;;;;;;;;;;;;;;;1118363;26;20018;-77
2024/04/09 02:49:56;;;;;;;;;;;;;;;;;;1119473;26;19940;-77
2024/04/09 02:50:26;;;;;;;;;;;;;;;;;;1115600;26;19937;-80
2024/04/09 02:50:57;;;;;;;;;;;;;;;;;;1113116;26;20404;-77
2024/04/09 02:51:27;;;;;;;;;;;;;;;;;;1110435;26;19937;-78
2024/04/09 02:51:58;;;;;;;;;;;;;;;;;;1117212;26;19943;-78
2024/04/09 02:52:28;;;;;;;;;;;;;;;;;;1118244;26;20397;-79
2024/04/09 02:52:58;;;;;;;;;;;;;;;;;;1120036;26;19933;-77
2024/04/09 02:53:28;;;;;;;;;;;;;;;;;;1120180;26;19936;-77
2024/04/09 02:53:58;;;;;;;;;;;;;;;;;;1114816;26;19937;-79
2024/04/09 02:54:29;;;;;;;;;;;;;;;;;;1115502;26;19982;-79
2024/04/09 02:55:03;;;;;;;;;;;;;;;;;;1115557;26;19940;-79
2024/04/09 02:55:33;;;;;;;;;;;;;;;;;;1118354;26;19961;-78
2024/04/09 02:56:03;;;;;;;;;;;;;;;;;;1119754;26;19983;-78
2024/04/09 02:56:34;;;;;;;;;;;;;;;;;;1117840;26;19974;-79
2024/04/09 02:57:04;;;;;;;;;;;;;;;;;;1126895;26;20024;-78
2024/04/09 02:57:36;;;;;;;;;;;;;;;;;;1121571;26;19960;-77
2024/04/09 02:58:06;;;;;;;;;;;;;;;;;;1128426;26;19951;-78
2024/04/09 02:58:36;;;;;;;;;;;;;;;;;;1127639;26;19944;-79
2024/04/09 02:59:07;;;;;;;;;;;;;;;;;;1118979;26;19953;-79
2024/04/09 02:59:39;;;;;;;;;;;;;;;;;;1115116;26;19929;-79
2024/04/09 03:00:15;;;;;;;;;;;;;;;;;;1119781;26;19933;-79
2024/04/09 03:00:45;;;;;;;;;;;;;;;;;;1120571;26;20067;-77
2024/04/09 03:01:15;;;;;;;;;;;;;;;;;;1117143;26;20006;-78
2024/04/09 03:01:46;;;;;;;;;;;;;;;;;;1117977;26;20305;-78
2024/04/09 03:02:16;;;;;;;;;;;;;;;;;;1117930;26;20278;-78
2024/04/09 03:02:46;;;;;;;;;;;;;;;;;;1114599;26;20451;-78
2024/04/09 03:03:16;;;;;;;;;;;;;;;;;;1117037;26;19937;-78
2024/04/09 03:03:47;;;;;;;;;;;;;;;;;;1114016;26;19933;-78
2024/04/09 03:04:17;;;;;;;;;;;;;;;;;;1111581;26;19937;-79
2024/04/09 03:04:47;;;;;;;;;;;;;;;;;;1121700;26;20010;-77
2024/04/09 03:05:17;;;;;;;;;;;;;;;;;;1122050;26;19960;-78
2024/04/09 03:05:48;;;;;;;;;;;;;;;;;;1123757;26;19928;-77
2024/04/09 03:06:19;;;;;;;;;;;;;;;;;;1120033;26;19928;-77
2024/04/09 03:06:49;;;;;;;;;;;;;;;;;;1123639;26;19936;-77
2024/04/09 03:07:19;;;;;;;;;;;;;;;;;;1114981;26;20684;-77
2024/04/09 03:07:49;;;;;;;;;;;;;;;;;;1114224;26;19935;-77
2024/04/09 03:08:20;;;;;;;;;;;;;;;;;;1116681;26;19965;-79
2024/04/09 03:08:50;;;;;;;;;;;;;;;;;;1118546;26;19969;-78
2024/04/09 03:09:20;;;;;;;;;;;;;;;;;;1119008;26;19991;-78
2024/04/09 03:09:51;;;;;;;;;;;;;;;;;;1117791;26;19952;-79
2024/04/09 03:10:21;;;;;;;;;;;;;;;;;;1112902;26;20316;-79
2024/04/09 03:10:51;;;;;;;;;;;;;;;;;;1114810;26;19948;-78
2024/04/09 03:11:21;;;;;;;;;;;;;;;;;;1116439;26;19956;-78
2024/04/09 03:11:52;;;;;;;;;;;;;;;;;;1120012;26;19936;-80
2024/04/09 03:12:22;;;;;;;;;;;;;;;;;;1120970;26;19935;-79
2024/04/09 03:12:53;;;;;;;;;;;;;;;;;;1115991;26;20020;-78
2024/04/09 03:13:23;;;;;;;;;;;;;;;;;;1113849;26;19997;-78
2024/04/09 03:13:53;;;;;;;;;;;;;;;;;;1115359;26;19934;-80
2024/04/09 03:14:25;;;;;;;;;;;;;;;;;;1116302;26;20387;-77
2024/04/09 03:14:56;;;;;;;;;;;;;;;;;;1113608;26;19952;-79
2024/04/09 03:15:27;;;;;;;;;;;;;;;;;;1130062;21;19935;-78
2024/04/09 03:15:57;;;;;;;;;;;;;;;;;;1127477;26;19933;-78
2024/04/09 03:16:28;;;;;;;;;;;;;;;;;;1129908;26;19938;-78
2024/04/09 03:17:18;;;;;;;;;;;;;;;;;;1127931;26;20297;-78
2024/04/09 03:17:48;;;;;;;;;;;;;;;;;;1129404;26;19973;-77
2024/04/09 03:18:18;;;;;;;;;;;;;;;;;;1132632;26;20055;-79
2024/04/09 03:18:49;;;;;;;;;;;;;;;;;;1133922;26;19940;-79
2024/04/09 03:19:19;;;;;;;;;;;;;;;;;;1134536;26;19928;-79
2024/04/09 03:19:49;;;;;;;;;;;;;;;;;;1133708;26;19966;-79
2024/04/09 03:20:20;;;;;;;;;;;;;;;;;;1129570;26;19952;-80
2024/04/09 03:20:50;;;;;;;;;;;;;;;;;;1128287;26;19936;-80
2024/04/09 03:21:20;;;;;;;;;;;;;;;;;;1122008;26;19975;-81
2024/04/09 03:21:51;;;;;;;;;;;;;;;;;;1122946;26;19940;-77
2024/04/09 03:22:21;;;;;;;;;;;;;;;;;;1118137;26;19929;-79
2024/04/09 03:22:52;;;;;;;;;;;;;;;;;;1117266;26;19976;-81
2024/04/09 03:23:22;;;;;;;;;;;;;;;;;;1123616;26;19941;-78
2024/04/09 03:23:53;;;;;;;;;;;;;;;;;;1122129;26;19941;-80
2024/04/09 03:24:23;;;;;;;;;;;;;;;;;;1121509;26;19935;-79
2024/04/09 03:24:53;;;;;;;;;;;;;;;;;;1122342;26;19929;-80
2024/04/09 03:25:24;;;;;;;;;;;;;;;;;;1118175;26;19929;-78
2024/04/09 03:25:54;;;;;;;;;;;;;;;;;;1119143;26;20518;-79
2024/04/09 03:26:24;;;;;;;;;;;;;;;;;;1127856;26;19928;-78
2024/04/09 03:26:54;;;;;;;;;;;;;;;;;;1126199;26;19944;-78
2024/04/09 03:27:25;;;;;;;;;;;;;;;;;;1127274;26;20019;-79
2024/04/09 03:28:29;;;;;;;;;;;;;;;;;;1121680;21;19925;-73
2024/04/09 03:28:59;;;;;;;;;;;;;;;;;;1128551;26;19952;-74
2024/04/09 03:29:30;;;;;;;;;;;;;;;;;;1130831;21;19948;-75
2024/04/09 03:30:00;;;;;;;;;;;;;;;;;;1120867;26;19935;-77
2024/04/09 03:30:32;;;;;;;;;;;;;;;;;;1120395;26;19932;-74
2024/04/09 03:31:02;;;;;;;;;;;;;;;;;;1120321;26;19940;-75